sensor_id;sensor_type;location;lat;lon;timestamp;temperature;humidity
5274;DHT22;56254;50.956;7.010;2022-10-04T00:00:50;12.30;99.90
5274;DHT22;56254;50.956;7.010;2022-10-04T00:03:26;12.30;99.90
5274;DHT22;56254;50.956;7.010;2022-10-04T00:05:56;12.10;99.90
5274;DHT22;56254;50.956;7.010;2022-10-04T00:08:29;12.20;99.90
5274;DHT22;56254;50.956;7.010;2022-10-04T00:11:03;12.20;99.90
5274;DHT22;56254;50.956;7.010;2022-10-04T00:13:30;12.20;99.90
5274;DHT22;56254;50.956;7.010;2022-10-04T00:15:56;12.10;99.90
5274;DHT22;56254;50.956;7.010;2022-10-04T00:18:39;12.10;99.90
5274;DHT22;56254;50.956;7.010;2022-10-04T00:21:07;12.10;99.90
5274;DHT22;56254;50.956;7.010;2022-10-04T00:28:46;12.20;99.90
5274;DHT22;56254;50.956;7.010;2022-10-04T00:31:16;12.20;99.90
5274;DHT22;56254;50.956;7.010;2022-10-04T00:36:52;12.10;99.90
5274;DHT22;56254;50.956;7.010;2022-10-04T00:39:26;12.10;99.90
5274;DHT22;56254;50.956;7.010;2022-10-04T00:44:53;12.30;99.90
5274;DHT22;56254;50.956;7.010;2022-10-04T00:47:31;12.40;99.90
5274;DHT22;56254;50.956;7.010;2022-10-04T00:50:33;12.40;99.90
5274;DHT22;56254;50.956;7.010;2022-10-04T00:53:02;12.30;99.90
5274;DHT22;56254;50.956;7.010;2022-10-04T00:55:39;12.30;99.90
5274;DHT22;56254;50.956;7.010;2022-10-04T00:58:19;12.40;99.90
5274;DHT22;56254;50.956;7.010;2022-10-04T01:00:47;12.40;99.90
5274;DHT22;56254;50.956;7.010;2022-10-04T01:03:20;12.40;99.90
5274;DHT22;56254;50.956;7.010;2022-10-04T01:05:53;12.30;99.90
5274;DHT22;56254;50.956;7.010;2022-10-04T01:08:50;12.20;99.90
5274;DHT22;56254;50.956;7.010;2022-10-04T01:11:37;12.20;99.90
5274;DHT22;56254;50.956;7.010;2022-10-04T01:14:48;12.20;99.90
5274;DHT22;56254;50.956;7.010;2022-10-04T01:17:16;12.20;99.90
5274;DHT22;56254;50.956;7.010;2022-10-04T01:19:51;12.20;99.90
5274;DHT22;56254;50.956;7.010;2022-10-04T01:22:36;12.30;99.90
5274;DHT22;56254;50.956;7.010;2022-10-04T01:25:04;12.30;99.90
5274;DHT22;56254;50.956;7.010;2022-10-04T01:27:39;12.20;99.90
5274;DHT22;56254;50.956;7.010;2022-10-04T01:30:10;12.10;99.90
5274;DHT22;56254;50.956;7.010;2022-10-04T01:32:37;12.20;99.90
5274;DHT22;56254;50.956;7.010;2022-10-04T01:35:07;12.40;99.90
5274;DHT22;56254;50.956;7.010;2022-10-04T01:37:34;12.20;99.90
5274;DHT22;56254;50.956;7.010;2022-10-04T01:40:00;12.20;99.90
5274;DHT22;56254;50.956;7.010;2022-10-04T01:42:34;12.20;99.90
5274;DHT22;56254;50.956;7.010;2022-10-04T01:45:24;12.30;99.90
5274;DHT22;56254;50.956;7.010;2022-10-04T01:47:55;12.30;99.90
5274;DHT22;56254;50.956;7.010;2022-10-04T01:50:32;12.20;99.90
5274;DHT22;56254;50.956;7.010;2022-10-04T01:53:17;12.20;99.90
5274;DHT22;56254;50.956;7.010;2022-10-04T01:55:48;12.20;99.90
5274;DHT22;56254;50.956;7.010;2022-10-04T01:58:25;12.20;99.90
5274;DHT22;56254;50.956;7.010;2022-10-04T02:01:15;12.10;99.90
5274;DHT22;56254;50.956;7.010;2022-10-04T02:03:55;12.10;99.90
5274;DHT22;56254;50.956;7.010;2022-10-04T02:06:23;12.20;99.90
5274;DHT22;56254;50.956;7.010;2022-10-04T02:08:50;12.00;99.90
5274;DHT22;56254;50.956;7.010;2022-10-04T02:11:22;12.10;99.90
5274;DHT22;56254;50.956;7.010;2022-10-04T02:13:51;12.20;99.90
5274;DHT22;56254;50.956;7.010;2022-10-04T02:16:18;12.10;99.90
5274;DHT22;56254;50.956;7.010;2022-10-04T02:18:45;12.20;99.90
5274;DHT22;56254;50.956;7.010;2022-10-04T02:21:11;12.20;99.90
5274;DHT22;56254;50.956;7.010;2022-10-04T02:23:39;12.10;99.90
5274;DHT22;56254;50.956;7.010;2022-10-04T02:26:07;12.00;99.90
5274;DHT22;56254;50.956;7.010;2022-10-04T02:28:35;12.00;99.90
5274;DHT22;56254;50.956;7.010;2022-10-04T02:31:01;12.00;99.90
5274;DHT22;56254;50.956;7.010;2022-10-04T02:33:48;12.00;99.90
5274;DHT22;56254;50.956;7.010;2022-10-04T02:36:15;12.00;99.90
5274;DHT22;56254;50.956;7.010;2022-10-04T02:38:49;11.90;99.90
5274;DHT22;56254;50.956;7.010;2022-10-04T02:41:31;11.80;99.90
5274;DHT22;56254;50.956;7.010;2022-10-04T02:44:03;11.90;99.90
5274;DHT22;56254;50.956;7.010;2022-10-04T02:46:48;11.90;99.90
5274;DHT22;56254;50.956;7.010;2022-10-04T02:49:27;11.90;99.90
5274;DHT22;56254;50.956;7.010;2022-10-04T02:52:02;11.90;99.90
5274;DHT22;56254;50.956;7.010;2022-10-04T02:54:37;11.90;99.90
5274;DHT22;56254;50.956;7.010;2022-10-04T02:57:15;11.80;99.90
5274;DHT22;56254;50.956;7.010;2022-10-04T02:59:42;11.80;99.90
5274;DHT22;56254;50.956;7.010;2022-10-04T03:02:29;11.70;99.90
5274;DHT22;56254;50.956;7.010;2022-10-04T03:04:59;11.70;99.90
5274;DHT22;56254;50.956;7.010;2022-10-04T03:07:31;11.70;99.90
5274;DHT22;56254;50.956;7.010;2022-10-04T03:09:58;11.80;99.90
5274;DHT22;56254;50.956;7.010;2022-10-04T03:12:24;11.90;99.90
5274;DHT22;56254;50.956;7.010;2022-10-04T03:14:52;11.70;99.90
5274;DHT22;56254;50.956;7.010;2022-10-04T03:17:19;11.80;99.90
5274;DHT22;56254;50.956;7.010;2022-10-04T03:19:47;11.70;99.90
5274;DHT22;56254;50.956;7.010;2022-10-04T03:22:14;11.80;99.90
5274;DHT22;56254;50.956;7.010;2022-10-04T03:24:49;11.60;99.90
5274;DHT22;56254;50.956;7.010;2022-10-04T03:27:20;11.80;99.90
5274;DHT22;56254;50.956;7.010;2022-10-04T03:29:47;11.60;99.90
5274;DHT22;56254;50.956;7.010;2022-10-04T03:32:16;11.50;99.90
5274;DHT22;56254;50.956;7.010;2022-10-04T03:35:06;11.60;99.90
5274;DHT22;56254;50.956;7.010;2022-10-04T03:37:35;11.60;99.90
5274;DHT22;56254;50.956;7.010;2022-10-04T03:40:02;11.60;99.90
5274;DHT22;56254;50.956;7.010;2022-10-04T03:42:31;11.60;99.90
5274;DHT22;56254;50.956;7.010;2022-10-04T03:45:12;11.60;99.90
5274;DHT22;56254;50.956;7.010;2022-10-04T03:47:43;11.80;99.90
5274;DHT22;56254;50.956;7.010;2022-10-04T03:52:58;11.70;99.90
5274;DHT22;56254;50.956;7.010;2022-10-04T03:55:39;11.60;99.90
5274;DHT22;56254;50.956;7.010;2022-10-04T03:58:15;11.70;99.90
5274;DHT22;56254;50.956;7.010;2022-10-04T04:09:50;11.60;99.90
5274;DHT22;56254;50.956;7.010;2022-10-04T04:12:45;11.40;99.90
5274;DHT22;56254;50.956;7.010;2022-10-04T04:15:13;11.50;99.90
5274;DHT22;56254;50.956;7.010;2022-10-04T04:17:44;11.40;99.90
5274;DHT22;56254;50.956;7.010;2022-10-04T04:20:52;11.40;99.90
5274;DHT22;56254;50.956;7.010;2022-10-04T04:25:46;11.30;99.90
5274;DHT22;56254;50.956;7.010;2022-10-04T04:31:07;11.40;99.90
5274;DHT22;56254;50.956;7.010;2022-10-04T04:33:45;11.30;99.90
5274;DHT22;56254;50.956;7.010;2022-10-04T04:36:15;11.20;99.90
5274;DHT22;56254;50.956;7.010;2022-10-04T04:38:42;11.20;99.90
5274;DHT22;56254;50.956;7.010;2022-10-04T04:41:29;11.20;99.90
5274;DHT22;56254;50.956;7.010;2022-10-04T04:43:57;11.20;99.90
5274;DHT22;56254;50.956;7.010;2022-10-04T04:46:23;10.90;99.90
5274;DHT22;56254;50.956;7.010;2022-10-04T04:49:01;11.00;99.90
5274;DHT22;56254;50.956;7.010;2022-10-04T04:51:29;11.10;99.90
5274;DHT22;56254;50.956;7.010;2022-10-04T04:53:56;11.30;99.90
5274;DHT22;56254;50.956;7.010;2022-10-04T04:56:25;11.00;99.90
5274;DHT22;56254;50.956;7.010;2022-10-04T04:58:54;11.10;99.90
5274;DHT22;56254;50.956;7.010;2022-10-04T05:01:30;11.20;99.90
5274;DHT22;56254;50.956;7.010;2022-10-04T05:06:40;10.90;99.90
5274;DHT22;56254;50.956;7.010;2022-10-04T05:09:38;11.00;99.90
5274;DHT22;56254;50.956;7.010;2022-10-04T05:12:17;11.00;99.90
5274;DHT22;56254;50.956;7.010;2022-10-04T05:14:47;10.90;99.90
5274;DHT22;56254;50.956;7.010;2022-10-04T05:17:24;10.90;99.90
5274;DHT22;56254;50.956;7.010;2022-10-04T05:19:52;10.80;99.90
5274;DHT22;56254;50.956;7.010;2022-10-04T05:22:22;10.90;99.90
5274;DHT22;56254;50.956;7.010;2022-10-04T05:24:57;10.80;99.90
5274;DHT22;56254;50.956;7.010;2022-10-04T05:27:40;10.80;99.90
5274;DHT22;56254;50.956;7.010;2022-10-04T05:35:19;10.70;99.90
5274;DHT22;56254;50.956;7.010;2022-10-04T05:41:07;10.70;99.90
5274;DHT22;56254;50.956;7.010;2022-10-04T05:43:48;10.70;99.90
5274;DHT22;56254;50.956;7.010;2022-10-04T05:46:33;10.70;99.90
5274;DHT22;56254;50.956;7.010;2022-10-04T05:49:11;10.70;99.90
5274;DHT22;56254;50.956;7.010;2022-10-04T05:52:12;10.80;99.90
5274;DHT22;56254;50.956;7.010;2022-10-04T05:54:38;10.70;99.90
5274;DHT22;56254;50.956;7.010;2022-10-04T06:01:01;10.80;99.90
5274;DHT22;56254;50.956;7.010;2022-10-04T06:06:04;10.80;99.90
5274;DHT22;56254;50.956;7.010;2022-10-04T06:08:40;10.90;99.90
5274;DHT22;56254;50.956;7.010;2022-10-04T06:11:17;11.20;99.90
5274;DHT22;56254;50.956;7.010;2022-10-04T06:19:48;11.60;99.90
5274;DHT22;56254;50.956;7.010;2022-10-04T06:24:32;11.50;99.90
5274;DHT22;56254;50.956;7.010;2022-10-04T06:29:36;11.40;99.90
5274;DHT22;56254;50.956;7.010;2022-10-04T06:37:38;11.60;99.90
5274;DHT22;56254;50.956;7.010;2022-10-04T06:40:51;11.70;99.90
5274;DHT22;56254;50.956;7.010;2022-10-04T06:46:01;11.70;99.90
5274;DHT22;56254;50.956;7.010;2022-10-04T06:51:59;11.80;99.90
5274;DHT22;56254;50.956;7.010;2022-10-04T07:00:12;11.90;99.90
5274;DHT22;56254;50.956;7.010;2022-10-04T07:05:34;12.00;99.90
5274;DHT22;56254;50.956;7.010;2022-10-04T07:11:10;12.20;99.90
5274;DHT22;56254;50.956;7.010;2022-10-04T07:16:41;12.20;99.90
5274;DHT22;56254;50.956;7.010;2022-10-04T07:19:44;12.40;99.90
5274;DHT22;56254;50.956;7.010;2022-10-04T07:22:59;12.40;99.90
5274;DHT22;56254;50.956;7.010;2022-10-04T07:25:22;12.70;99.90
5274;DHT22;56254;50.956;7.010;2022-10-04T07:27:59;12.60;99.90
5274;DHT22;56254;50.956;7.010;2022-10-04T07:33:26;12.90;99.90
5274;DHT22;56254;50.956;7.010;2022-10-04T07:36:14;13.20;99.90
5274;DHT22;56254;50.956;7.010;2022-10-04T07:38:55;13.30;99.90
5274;DHT22;56254;50.956;7.010;2022-10-04T07:41:36;13.40;99.90
5274;DHT22;56254;50.956;7.010;2022-10-04T07:44:05;13.50;99.90
5274;DHT22;56254;50.956;7.010;2022-10-04T07:49:27;13.80;99.90
5274;DHT22;56254;50.956;7.010;2022-10-04T08:00:32;14.00;99.90
5274;DHT22;56254;50.956;7.010;2022-10-04T08:14:22;14.10;99.90
5274;DHT22;56254;50.956;7.010;2022-10-04T08:25:36;14.10;99.90
5274;DHT22;56254;50.956;7.010;2022-10-04T08:28:38;14.20;99.90
5274;DHT22;56254;50.956;7.010;2022-10-04T08:31:35;14.20;99.90
5274;DHT22;56254;50.956;7.010;2022-10-04T09:04:25;14.70;99.70
5274;DHT22;56254;50.956;7.010;2022-10-04T09:34:50;16.10;94.80
5274;DHT22;56254;50.956;7.010;2022-10-04T09:49:20;16.50;93.10
5274;DHT22;56254;50.956;7.010;2022-10-04T09:55:32;16.70;93.10
5274;DHT22;56254;50.956;7.010;2022-10-04T10:01:37;17.10;92.40
5274;DHT22;56254;50.956;7.010;2022-10-04T10:06:56;17.00;91.40
5274;DHT22;56254;50.956;7.010;2022-10-04T10:09:32;17.10;91.80
5274;DHT22;56254;50.956;7.010;2022-10-04T10:12:46;17.20;91.70
5274;DHT22;56254;50.956;7.010;2022-10-04T10:33:14;17.90;90.20
5274;DHT22;56254;50.956;7.010;2022-10-04T10:36:22;17.90;88.60
5274;DHT22;56254;50.956;7.010;2022-10-04T10:41:59;17.80;88.60
5274;DHT22;56254;50.956;7.010;2022-10-04T10:47:58;18.00;87.40
5274;DHT22;56254;50.956;7.010;2022-10-04T11:07:54;18.90;85.30
5274;DHT22;56254;50.956;7.010;2022-10-04T11:13:47;19.10;84.00
5274;DHT22;56254;50.956;7.010;2022-10-04T11:42:09;20.00;84.20
5274;DHT22;56254;50.956;7.010;2022-10-04T12:01:44;20.10;80.00
5274;DHT22;56254;50.956;7.010;2022-10-04T12:07:11;20.30;80.00
5274;DHT22;56254;50.956;7.010;2022-10-04T12:09:43;20.30;79.20
5274;DHT22;56254;50.956;7.010;2022-10-04T12:18:39;20.60;78.80
5274;DHT22;56254;50.956;7.010;2022-10-04T12:24:26;20.70;78.00
5274;DHT22;56254;50.956;7.010;2022-10-04T12:42:57;21.30;78.50
5274;DHT22;56254;50.956;7.010;2022-10-04T12:45:33;21.30;78.60
5274;DHT22;56254;50.956;7.010;2022-10-04T12:53:46;21.50;78.50
5274;DHT22;56254;50.956;7.010;2022-10-04T13:07:12;21.80;77.80
5274;DHT22;56254;50.956;7.010;2022-10-04T13:15:50;22.40;76.30
5274;DHT22;56254;50.956;7.010;2022-10-04T13:18:30;22.30;77.00
5274;DHT22;56254;50.956;7.010;2022-10-04T13:21:08;22.20;76.60
5274;DHT22;56254;50.956;7.010;2022-10-04T13:24:30;22.20;77.10
5274;DHT22;56254;50.956;7.010;2022-10-04T13:26:56;22.10;77.10
5274;DHT22;56254;50.956;7.010;2022-10-04T13:29:39;22.10;76.70
5274;DHT22;56254;50.956;7.010;2022-10-04T13:32:14;22.10;77.00
5274;DHT22;56254;50.956;7.010;2022-10-04T13:43:03;22.60;75.90
5274;DHT22;56254;50.956;7.010;2022-10-04T13:45:40;22.60;76.70
5274;DHT22;56254;50.956;7.010;2022-10-04T14:08:57;22.70;76.80
5274;DHT22;56254;50.956;7.010;2022-10-04T14:25:15;22.70;75.90
5274;DHT22;56254;50.956;7.010;2022-10-04T14:42:13;22.70;75.40
5274;DHT22;56254;50.956;7.010;2022-10-04T14:44:51;22.90;75.30
5274;DHT22;56254;50.956;7.010;2022-10-04T14:53:05;22.90;75.30
5274;DHT22;56254;50.956;7.010;2022-10-04T14:58:56;22.80;77.20
5274;DHT22;56254;50.956;7.010;2022-10-04T15:01:25;22.60;77.20
5274;DHT22;56254;50.956;7.010;2022-10-04T15:06:49;22.70;77.30
5274;DHT22;56254;50.956;7.010;2022-10-04T15:17:26;22.60;78.40
5274;DHT22;56254;50.956;7.010;2022-10-04T15:22:54;22.30;79.00
5274;DHT22;56254;50.956;7.010;2022-10-04T15:30:54;22.20;79.60
5274;DHT22;56254;50.956;7.010;2022-10-04T15:39:02;22.30;80.70
5274;DHT22;56254;50.956;7.010;2022-10-04T15:42:05;22.10;81.00
5274;DHT22;56254;50.956;7.010;2022-10-04T15:44:57;22.10;81.10
5274;DHT22;56254;50.956;7.010;2022-10-04T15:50:25;21.90;77.70
5274;DHT22;56254;50.956;7.010;2022-10-04T16:04:41;21.80;76.80
5274;DHT22;56254;50.956;7.010;2022-10-04T16:15:40;21.40;77.60
5274;DHT22;56254;50.956;7.010;2022-10-04T16:23:41;21.00;78.90
5274;DHT22;56254;50.956;7.010;2022-10-04T16:34:38;20.40;82.50
5274;DHT22;56254;50.956;7.010;2022-10-04T16:38:22;20.40;82.70
5274;DHT22;56254;50.956;7.010;2022-10-04T17:18:24;19.10;90.90
5274;DHT22;56254;50.956;7.010;2022-10-04T17:21:00;19.00;91.30
5274;DHT22;56254;50.956;7.010;2022-10-04T17:29:13;18.80;92.30
5274;DHT22;56254;50.956;7.010;2022-10-04T17:32:08;18.70;92.20
5274;DHT22;56254;50.956;7.010;2022-10-04T17:37:45;18.60;92.40
5274;DHT22;56254;50.956;7.010;2022-10-04T17:51:55;18.30;92.50
5274;DHT22;56254;50.956;7.010;2022-10-04T17:55:02;18.20;92.60
5274;DHT22;56254;50.956;7.010;2022-10-04T18:00:59;18.00;94.10
5274;DHT22;56254;50.956;7.010;2022-10-04T18:06:42;17.90;93.70
5274;DHT22;56254;50.956;7.010;2022-10-04T18:12:09;17.80;93.80
5274;DHT22;56254;50.956;7.010;2022-10-04T18:15:15;17.70;94.20
5274;DHT22;56254;50.956;7.010;2022-10-04T18:17:47;17.60;94.00
5274;DHT22;56254;50.956;7.010;2022-10-04T18:20:23;17.50;93.90
5274;DHT22;56254;50.956;7.010;2022-10-04T18:22:57;17.50;93.60
5274;DHT22;56254;50.956;7.010;2022-10-04T18:25:24;17.50;93.20
5274;DHT22;56254;50.956;7.010;2022-10-04T18:30:50;17.40;93.10
5274;DHT22;56254;50.956;7.010;2022-10-04T18:33:21;17.40;92.10
5274;DHT22;56254;50.956;7.010;2022-10-04T18:36:04;17.40;91.60
5274;DHT22;56254;50.956;7.010;2022-10-04T18:38:34;17.30;91.00
5274;DHT22;56254;50.956;7.010;2022-10-04T18:41:22;17.40;90.90
5274;DHT22;56254;50.956;7.010;2022-10-04T18:44:14;17.30;91.10
5274;DHT22;56254;50.956;7.010;2022-10-04T18:46:41;17.30;90.80
5274;DHT22;56254;50.956;7.010;2022-10-04T18:49:16;17.20;90.60
5274;DHT22;56254;50.956;7.010;2022-10-04T20:00:57;16.30;93.50
5274;DHT22;56254;50.956;7.010;2022-10-04T20:03:23;16.30;93.70
5274;DHT22;56254;50.956;7.010;2022-10-04T20:05:52;16.30;93.70
5274;DHT22;56254;50.956;7.010;2022-10-04T20:13:41;16.30;93.80
5274;DHT22;56254;50.956;7.010;2022-10-04T20:16:06;16.20;94.00
5274;DHT22;56254;50.956;7.010;2022-10-04T20:26:39;16.10;94.40
5274;DHT22;56254;50.956;7.010;2022-10-04T20:32:05;16.10;94.70
5274;DHT22;56254;50.956;7.010;2022-10-04T20:37:08;16.00;95.10
5274;DHT22;56254;50.956;7.010;2022-10-04T20:44:52;15.90;96.00
5274;DHT22;56254;50.956;7.010;2022-10-04T20:52:54;15.70;96.20
5274;DHT22;56254;50.956;7.010;2022-10-04T20:55:34;15.60;96.20
5274;DHT22;56254;50.956;7.010;2022-10-04T20:58:21;15.60;96.30
5274;DHT22;56254;50.956;7.010;2022-10-04T21:00:55;15.50;97.00
5274;DHT22;56254;50.956;7.010;2022-10-04T21:03:23;15.40;97.00
5274;DHT22;56254;50.956;7.010;2022-10-04T21:06:05;15.40;98.80
5274;DHT22;56254;50.956;7.010;2022-10-04T21:08:33;15.40;99.00
5274;DHT22;56254;50.956;7.010;2022-10-04T21:16:11;15.20;99.90
5274;DHT22;56254;50.956;7.010;2022-10-04T21:22:06;15.20;99.90
5274;DHT22;56254;50.956;7.010;2022-10-04T21:27:33;15.10;99.90
5274;DHT22;56254;50.956;7.010;2022-10-04T21:30:11;15.00;99.90
5274;DHT22;56254;50.956;7.010;2022-10-04T21:32:37;15.00;99.90
5274;DHT22;56254;50.956;7.010;2022-10-04T21:35:04;15.00;99.90
5274;DHT22;56254;50.956;7.010;2022-10-04T21:37:30;14.90;99.90
5274;DHT22;56254;50.956;7.010;2022-10-04T21:39:56;14.90;99.90
5274;DHT22;56254;50.956;7.010;2022-10-04T21:42:22;15.00;99.90
5274;DHT22;56254;50.956;7.010;2022-10-04T21:44:48;15.00;99.90
5274;DHT22;56254;50.956;7.010;2022-10-04T21:47:14;14.90;99.90
5274;DHT22;56254;50.956;7.010;2022-10-04T21:49:41;14.90;99.90
5274;DHT22;56254;50.956;7.010;2022-10-04T21:52:09;14.90;99.90
5274;DHT22;56254;50.956;7.010;2022-10-04T21:54:35;14.80;99.90
5274;DHT22;56254;50.956;7.010;2022-10-04T21:57:01;14.90;99.90
5274;DHT22;56254;50.956;7.010;2022-10-04T21:59:27;14.80;99.90
5274;DHT22;56254;50.956;7.010;2022-10-04T22:01:53;14.90;99.90
5274;DHT22;56254;50.956;7.010;2022-10-04T22:04:19;14.90;99.90
5274;DHT22;56254;50.956;7.010;2022-10-04T22:06:45;14.80;99.90
5274;DHT22;56254;50.956;7.010;2022-10-04T22:09:11;14.90;99.90
5274;DHT22;56254;50.956;7.010;2022-10-04T22:11:36;14.70;99.90
5274;DHT22;56254;50.956;7.010;2022-10-04T22:14:06;14.60;99.90
5274;DHT22;56254;50.956;7.010;2022-10-04T22:16:33;14.70;99.90
5274;DHT22;56254;50.956;7.010;2022-10-04T22:18:59;14.70;99.90
5274;DHT22;56254;50.956;7.010;2022-10-04T22:21:24;14.60;99.90
5274;DHT22;56254;50.956;7.010;2022-10-04T22:23:51;14.60;99.90
5274;DHT22;56254;50.956;7.010;2022-10-04T22:26:20;14.60;99.90
5274;DHT22;56254;50.956;7.010;2022-10-04T22:28:48;14.50;99.90
5274;DHT22;56254;50.956;7.010;2022-10-04T22:31:18;14.50;99.90
5274;DHT22;56254;50.956;7.010;2022-10-04T22:33:45;14.50;99.90
5274;DHT22;56254;50.956;7.010;2022-10-04T22:36:37;14.50;99.90
5274;DHT22;56254;50.956;7.010;2022-10-04T22:39:14;14.40;99.90
5274;DHT22;56254;50.956;7.010;2022-10-04T22:41:51;14.40;99.90
5274;DHT22;56254;50.956;7.010;2022-10-04T22:44:20;14.30;99.90
5274;DHT22;56254;50.956;7.010;2022-10-04T22:46:51;14.30;99.90
5274;DHT22;56254;50.956;7.010;2022-10-04T22:49:23;14.30;99.90
5274;DHT22;56254;50.956;7.010;2022-10-04T22:51:51;14.20;99.90
5274;DHT22;56254;50.956;7.010;2022-10-04T22:54:25;14.20;99.90
5274;DHT22;56254;50.956;7.010;2022-10-04T22:56:52;14.20;99.90
5274;DHT22;56254;50.956;7.010;2022-10-04T22:59:19;14.20;99.90
5274;DHT22;56254;50.956;7.010;2022-10-04T23:01:46;14.20;99.90
5274;DHT22;56254;50.956;7.010;2022-10-04T23:04:23;14.10;99.90
5274;DHT22;56254;50.956;7.010;2022-10-04T23:06:50;14.20;99.90
5274;DHT22;56254;50.956;7.010;2022-10-04T23:09:17;14.20;99.90
5274;DHT22;56254;50.956;7.010;2022-10-04T23:11:43;14.20;99.90
5274;DHT22;56254;50.956;7.010;2022-10-04T23:14:09;14.30;99.90
5274;DHT22;56254;50.956;7.010;2022-10-04T23:16:35;14.20;99.90
5274;DHT22;56254;50.956;7.010;2022-10-04T23:19:11;14.20;99.90
5274;DHT22;56254;50.956;7.010;2022-10-04T23:21:38;14.20;99.90
5274;DHT22;56254;50.956;7.010;2022-10-04T23:26:44;14.20;99.90
5274;DHT22;56254;50.956;7.010;2022-10-04T23:29:25;14.20;99.90
5274;DHT22;56254;50.956;7.010;2022-10-04T23:31:51;14.10;99.90
5274;DHT22;56254;50.956;7.010;2022-10-04T23:34:37;14.10;99.90
5274;DHT22;56254;50.956;7.010;2022-10-04T23:37:26;14.10;99.90
5274;DHT22;56254;50.956;7.010;2022-10-04T23:39:53;14.00;99.90
5274;DHT22;56254;50.956;7.010;2022-10-04T23:42:22;14.00;99.90
5274;DHT22;56254;50.956;7.010;2022-10-04T23:44:58;14.00;99.90
5274;DHT22;56254;50.956;7.010;2022-10-04T23:47:32;14.00;99.90
5274;DHT22;56254;50.956;7.010;2022-10-04T23:50:01;14.00;99.90
5274;DHT22;56254;50.956;7.010;2022-10-04T23:52:36;14.00;99.90
5274;DHT22;56254;50.956;7.010;2022-10-04T23:55:19;14.00;99.90
5274;DHT22;56254;50.956;7.010;2022-10-04T23:57:45;14.00;99.90
